sensor_id;sensor_type;location;lat;lon;timestamp;pressure;altitude;pressure_sealevel;temperature;humidity
66945;BME280;53853;51.982;5.928;2023-02-13T00:00:56;103680.03;;;9.61;65.09
66945;BME280;53853;51.982;5.928;2023-02-13T00:03:26;103679.31;;;9.58;65.03
66945;BME280;53853;51.982;5.928;2023-02-13T00:05:58;103685.50;;;9.58;64.99
66945;BME280;53853;51.982;5.928;2023-02-13T00:08:28;103674.00;;;9.58;65.14
66945;BME280;53853;51.982;5.928;2023-02-13T00:10:58;103684.47;;;9.61;65.15
66945;BME280;53853;51.982;5.928;2023-02-13T00:13:28;103675.69;;;9.59;65.08
66945;BME280;53853;51.982;5.928;2023-02-13T00:15:59;103666.78;;;9.60;65.08
66945;BME280;53853;51.982;5.928;2023-02-13T00:18:32;103667.78;;;9.57;65.23
66945;BME280;53853;51.982;5.928;2023-02-13T00:21:07;103664.34;;;9.55;65.22
66945;BME280;53853;51.982;5.928;2023-02-13T00:23:38;103664.19;;;9.58;64.97
66945;BME280;53853;51.982;5.928;2023-02-13T00:26:10;103662.69;;;9.53;65.07
66945;BME280;53853;51.982;5.928;2023-02-13T00:28:44;103664.72;;;9.48;65.21
66945;BME280;53853;51.982;5.928;2023-02-13T00:31:17;103657.56;;;9.48;65.29
66945;BME280;53853;51.982;5.928;2023-02-13T00:33:48;103655.13;;;9.43;65.31
66945;BME280;53853;51.982;5.928;2023-02-13T00:36:21;103659.38;;;9.48;65.44
66945;BME280;53853;51.982;5.928;2023-02-13T00:38:52;103649.59;;;9.48;65.12
66945;BME280;53853;51.982;5.928;2023-02-13T00:41:22;103646.94;;;9.48;65.27
66945;BME280;53853;51.982;5.928;2023-02-13T00:43:53;103650.41;;;9.50;64.99
66945;BME280;53853;51.982;5.928;2023-02-13T00:46:23;103651.47;;;9.46;65.38
66945;BME280;53853;51.982;5.928;2023-02-13T00:48:53;103663.13;;;9.43;65.37
66945;BME280;53853;51.982;5.928;2023-02-13T00:51:26;103656.78;;;9.46;65.28
66945;BME280;53853;51.982;5.928;2023-02-13T00:53:57;103662.97;;;9.47;65.28
66945;BME280;53853;51.982;5.928;2023-02-13T00:56:27;103669.41;;;9.42;65.21
66945;BME280;53853;51.982;5.928;2023-02-13T00:58:57;103656.94;;;9.43;65.24
66945;BME280;53853;51.982;5.928;2023-02-13T01:01:27;103658.97;;;9.38;65.26
66945;BME280;53853;51.982;5.928;2023-02-13T01:03:58;103648.25;;;9.39;65.38
66945;BME280;53853;51.982;5.928;2023-02-13T01:06:31;103655.13;;;9.43;65.52
66945;BME280;53853;51.982;5.928;2023-02-13T01:09:02;103650.84;;;9.41;65.58
66945;BME280;53853;51.982;5.928;2023-02-13T01:11:32;103654.41;;;9.40;65.82
66945;BME280;53853;51.982;5.928;2023-02-13T01:14:02;103654.50;;;9.38;65.75
66945;BME280;53853;51.982;5.928;2023-02-13T01:16:32;103653.56;;;9.39;66.07
66945;BME280;53853;51.982;5.928;2023-02-13T01:19:03;103654.34;;;9.41;65.89
66945;BME280;53853;51.982;5.928;2023-02-13T01:21:35;103659.53;;;9.45;65.82
66945;BME280;53853;51.982;5.928;2023-02-13T01:24:06;103656.88;;;9.45;65.86
66945;BME280;53853;51.982;5.928;2023-02-13T01:26:36;103661.25;;;9.46;66.00
66945;BME280;53853;51.982;5.928;2023-02-13T01:29:06;103658.47;;;9.49;65.78
66945;BME280;53853;51.982;5.928;2023-02-13T01:31:36;103648.81;;;9.46;66.05
66945;BME280;53853;51.982;5.928;2023-02-13T01:34:06;103651.25;;;9.51;65.96
66945;BME280;53853;51.982;5.928;2023-02-13T01:36:38;103650.41;;;9.50;65.91
66945;BME280;53853;51.982;5.928;2023-02-13T01:39:11;103648.59;;;9.51;65.78
66945;BME280;53853;51.982;5.928;2023-02-13T01:41:42;103649.88;;;9.42;65.66
66945;BME280;53853;51.982;5.928;2023-02-13T01:47:25;103645.50;;;9.41;66.14
66945;BME280;53853;51.982;5.928;2023-02-13T01:50:04;103642.78;;;9.42;66.27
66945;BME280;53853;51.982;5.928;2023-02-13T01:52:41;103641.88;;;9.42;66.31
66945;BME280;53853;51.982;5.928;2023-02-13T01:55:13;103637.31;;;9.46;66.37
66945;BME280;53853;51.982;5.928;2023-02-13T01:57:48;103638.16;;;9.46;66.17
66945;BME280;53853;51.982;5.928;2023-02-13T02:00:21;103631.97;;;9.46;66.14
66945;BME280;53853;51.982;5.928;2023-02-13T02:02:53;103637.31;;;9.46;66.29
66945;BME280;53853;51.982;5.928;2023-02-13T02:05:27;103632.91;;;9.45;66.54
66945;BME280;53853;51.982;5.928;2023-02-13T02:08:04;103641.75;;;9.45;66.50
66945;BME280;53853;51.982;5.928;2023-02-13T02:10:37;103634.78;;;9.42;66.50
66945;BME280;53853;51.982;5.928;2023-02-13T02:13:10;103631.91;;;9.47;66.46
66945;BME280;53853;51.982;5.928;2023-02-13T02:15:42;103631.84;;;9.49;66.53
66945;BME280;53853;51.982;5.928;2023-02-13T02:18:14;103633.53;;;9.50;66.49
66945;BME280;53853;51.982;5.928;2023-02-13T02:27:16;103633.84;;;9.43;67.03
66945;BME280;53853;51.982;5.928;2023-02-13T02:36:13;103633.63;;;9.48;67.04
66945;BME280;53853;51.982;5.928;2023-02-13T02:39:01;103630.19;;;9.46;67.32
66945;BME280;53853;51.982;5.928;2023-02-13T02:41:45;103620.38;;;9.47;67.40
66945;BME280;53853;51.982;5.928;2023-02-13T02:44:31;103632.75;;;9.48;67.29
66945;BME280;53853;51.982;5.928;2023-02-13T02:47:11;103630.19;;;9.46;67.18
66945;BME280;53853;51.982;5.928;2023-02-13T02:50:10;103630.03;;;9.49;67.14
66945;BME280;53853;51.982;5.928;2023-02-13T02:52:49;103630.88;;;9.50;67.22
66945;BME280;53853;51.982;5.928;2023-02-13T02:55:30;103632.69;;;9.49;67.25
66945;BME280;53853;51.982;5.928;2023-02-13T02:58:08;103628.97;;;9.53;67.02
66945;BME280;53853;51.982;5.928;2023-02-13T03:00:57;103625.56;;;9.50;67.42
66945;BME280;53853;51.982;5.928;2023-02-13T03:03:40;103628.06;;;9.53;67.67
66945;BME280;53853;51.982;5.928;2023-02-13T03:06:31;103621.91;;;9.52;67.33
66945;BME280;53853;51.982;5.928;2023-02-13T03:09:05;103622.75;;;9.53;67.64
66945;BME280;53853;51.982;5.928;2023-02-13T03:11:54;103614.75;;;9.53;67.42
66945;BME280;53853;51.982;5.928;2023-02-13T03:14:37;103612.97;;;9.53;67.57
66945;BME280;53853;51.982;5.928;2023-02-13T03:17:10;103612.25;;;9.50;67.71
66945;BME280;53853;51.982;5.928;2023-02-13T03:20:02;103613.97;;;9.51;67.75
66945;BME280;53853;51.982;5.928;2023-02-13T03:23:01;103618.59;;;9.47;67.90
66945;BME280;53853;51.982;5.928;2023-02-13T03:25:37;103616.72;;;9.49;68.11
66945;BME280;53853;51.982;5.928;2023-02-13T03:28:18;103630.03;;;9.49;67.93
66945;BME280;53853;51.982;5.928;2023-02-13T03:31:09;103630.88;;;9.50;67.90
66945;BME280;53853;51.982;5.928;2023-02-13T03:33:55;103627.44;;;9.48;68.16
66945;BME280;53853;51.982;5.928;2023-02-13T03:36:39;103630.09;;;9.48;68.16
66945;BME280;53853;51.982;5.928;2023-02-13T03:39:34;103626.50;;;9.49;68.21
66945;BME280;53853;51.982;5.928;2023-02-13T03:42:09;103627.28;;;9.51;68.57
66945;BME280;53853;51.982;5.928;2023-02-13T03:44:43;103635.28;;;9.51;68.44
66945;BME280;53853;51.982;5.928;2023-02-13T03:47:35;103629.19;;;9.49;68.27
66945;BME280;53853;51.982;5.928;2023-02-13T03:50:08;103629.94;;;9.51;68.57
66945;BME280;53853;51.982;5.928;2023-02-13T03:52:42;103636.06;;;9.53;68.36
66945;BME280;53853;51.982;5.928;2023-02-13T03:55:18;103623.69;;;9.52;68.80
66945;BME280;53853;51.982;5.928;2023-02-13T03:58:04;103629.81;;;9.54;68.60
66945;BME280;53853;51.982;5.928;2023-02-13T04:00:51;103628.06;;;9.53;68.74
66945;BME280;53853;51.982;5.928;2023-02-13T04:03:26;103627.16;;;9.54;68.45
66945;BME280;53853;51.982;5.928;2023-02-13T04:06:01;103624.47;;;9.54;68.64
66945;BME280;53853;51.982;5.928;2023-02-13T04:08:33;103623.69;;;9.52;68.81
66945;BME280;53853;51.982;5.928;2023-02-13T04:11:12;103628.97;;;9.53;68.70
66945;BME280;53853;51.982;5.928;2023-02-13T04:13:46;103629.88;;;9.52;68.63
66945;BME280;53853;51.982;5.928;2023-02-13T04:16:22;103632.69;;;9.49;69.03
66945;BME280;53853;51.982;5.928;2023-02-13T04:18:56;103631.84;;;9.49;68.88
66945;BME280;53853;51.982;5.928;2023-02-13T04:21:30;103635.44;;;9.48;68.93
66945;BME280;53853;51.982;5.928;2023-02-13T04:24:00;103633.69;;;9.47;68.86
66945;BME280;53853;51.982;5.928;2023-02-13T04:26:36;103631.03;;;9.47;68.99
66945;BME280;53853;51.982;5.928;2023-02-13T04:29:07;103638.94;;;9.48;69.19
66945;BME280;53853;51.982;5.928;2023-02-13T04:31:37;103633.53;;;9.50;69.08
66945;BME280;53853;51.982;5.928;2023-02-13T04:34:07;103637.09;;;9.50;68.88
66945;BME280;53853;51.982;5.928;2023-02-13T04:36:37;103635.22;;;9.52;68.79
66945;BME280;53853;51.982;5.928;2023-02-13T04:39:07;103624.56;;;9.52;68.39
66945;BME280;53853;51.982;5.928;2023-02-13T04:41:40;103629.81;;;9.54;68.58
66945;BME280;53853;51.982;5.928;2023-02-13T04:44:10;103624.41;;;9.55;68.46
66945;BME280;53853;51.982;5.928;2023-02-13T04:46:39;103634.34;;;9.52;68.74
66945;BME280;53853;51.982;5.928;2023-02-13T04:49:10;103627.22;;;9.52;68.60
66945;BME280;53853;51.982;5.928;2023-02-13T04:51:40;103627.16;;;9.54;68.58
66945;BME280;53853;51.982;5.928;2023-02-13T04:54:10;103637.00;;;9.52;68.82
66945;BME280;53853;51.982;5.928;2023-02-13T04:56:43;103631.75;;;9.50;69.00
66945;BME280;53853;51.982;5.928;2023-02-13T04:59:12;103630.94;;;9.48;69.10
66945;BME280;53853;51.982;5.928;2023-02-13T05:01:42;103635.28;;;9.51;69.00
66945;BME280;53853;51.982;5.928;2023-02-13T05:04:12;103621.13;;;9.50;69.15
66945;BME280;53853;51.982;5.928;2023-02-13T05:06:43;103625.56;;;9.50;69.35
66945;BME280;53853;51.982;5.928;2023-02-13T05:09:13;103610.47;;;9.50;69.36
66945;BME280;53853;51.982;5.928;2023-02-13T05:11:45;103607.00;;;9.48;69.29
66945;BME280;53853;51.982;5.928;2023-02-13T05:14:15;103609.66;;;9.48;69.06
66945;BME280;53853;51.982;5.928;2023-02-13T05:16:45;103611.41;;;9.49;69.25
66945;BME280;53853;51.982;5.928;2023-02-13T05:19:15;103607.06;;;9.47;69.38
66945;BME280;53853;51.982;5.928;2023-02-13T05:21:45;103606.16;;;9.48;69.09
66945;BME280;53853;51.982;5.928;2023-02-13T05:24:42;103607.22;;;9.43;69.52
66945;BME280;53853;51.982;5.928;2023-02-13T05:27:15;103605.38;;;9.46;69.25
66945;BME280;53853;51.982;5.928;2023-02-13T05:29:45;103605.38;;;9.46;69.52
66945;BME280;53853;51.982;5.928;2023-02-13T05:32:12;103602.78;;;9.44;69.54
66945;BME280;53853;51.982;5.928;2023-02-13T05:34:42;103600.97;;;9.45;69.50
66945;BME280;53853;51.982;5.928;2023-02-13T05:37:12;103606.44;;;9.41;69.60
66945;BME280;53853;51.982;5.928;2023-02-13T05:39:42;103597.44;;;9.44;69.40
66945;BME280;53853;51.982;5.928;2023-02-13T05:42:14;103605.50;;;9.42;69.53
66945;BME280;53853;51.982;5.928;2023-02-13T05:44:44;103602.72;;;9.46;69.30
66945;BME280;53853;51.982;5.928;2023-02-13T05:47:14;103593.84;;;9.45;69.16
66945;BME280;53853;51.982;5.928;2023-02-13T05:49:44;103601.88;;;9.43;69.80
66945;BME280;53853;51.982;5.928;2023-02-13T05:52:13;103600.19;;;9.42;69.77
66945;BME280;53853;51.982;5.928;2023-02-13T05:54:43;103592.28;;;9.41;69.92
66945;BME280;53853;51.982;5.928;2023-02-13T05:57:16;103599.38;;;9.40;70.12
66945;BME280;53853;51.982;5.928;2023-02-13T05:59:46;103603.00;;;9.39;70.01
66945;BME280;53853;51.982;5.928;2023-02-13T06:02:15;103598.44;;;9.41;70.00
66945;BME280;53853;51.982;5.928;2023-02-13T06:04:45;103598.44;;;9.41;70.08
66945;BME280;53853;51.982;5.928;2023-02-13T06:07:15;103602.91;;;9.41;69.94
66945;BME280;53853;51.982;5.928;2023-02-13T06:09:45;103601.41;;;9.35;69.93
66945;BME280;53853;51.982;5.928;2023-02-13T06:12:18;103603.00;;;9.39;70.19
66945;BME280;53853;51.982;5.928;2023-02-13T06:14:48;103599.63;;;9.36;70.30
66945;BME280;53853;51.982;5.928;2023-02-13T06:17:17;103595.16;;;9.36;70.37
66945;BME280;53853;51.982;5.928;2023-02-13T06:19:47;103598.38;;;9.43;69.97
66945;BME280;53853;51.982;5.928;2023-02-13T06:22:17;103593.97;;;9.42;70.05
66945;BME280;53853;51.982;5.928;2023-02-13T06:24:47;103597.53;;;9.42;69.99
66945;BME280;53853;51.982;5.928;2023-02-13T06:27:20;103598.31;;;9.45;69.99
66945;BME280;53853;51.982;5.928;2023-02-13T06:29:49;103596.56;;;9.43;70.14
66945;BME280;53853;51.982;5.928;2023-02-13T06:32:19;103598.16;;;9.48;70.11
66945;BME280;53853;51.982;5.928;2023-02-13T06:34:49;103595.41;;;9.49;70.17
66945;BME280;53853;51.982;5.928;2023-02-13T06:37:19;103597.94;;;9.52;70.04
66945;BME280;53853;51.982;5.928;2023-02-13T06:39:49;103599.66;;;9.53;69.91
66945;BME280;53853;51.982;5.928;2023-02-13T06:42:21;103603.13;;;9.55;69.80
66945;BME280;53853;51.982;5.928;2023-02-13T06:44:51;103607.50;;;9.56;69.92
66945;BME280;53853;51.982;5.928;2023-02-13T06:47:21;103605.69;;;9.57;69.88
66945;BME280;53853;51.982;5.928;2023-02-13T06:49:51;103609.22;;;9.57;69.59
66945;BME280;53853;51.982;5.928;2023-02-13T06:52:21;103609.22;;;9.57;69.90
66945;BME280;53853;51.982;5.928;2023-02-13T06:54:51;103609.13;;;9.59;69.84
66945;BME280;53853;51.982;5.928;2023-02-13T06:57:23;103618.72;;;9.63;69.90
66945;BME280;53853;51.982;5.928;2023-02-13T06:59:53;103617.69;;;9.66;69.82
66945;BME280;53853;51.982;5.928;2023-02-13T07:02:23;103617.69;;;9.66;69.66
66945;BME280;53853;51.982;5.928;2023-02-13T07:04:53;103624.75;;;9.67;69.75
66945;BME280;53853;51.982;5.928;2023-02-13T07:07:23;103627.47;;;9.65;70.00
66945;BME280;53853;51.982;5.928;2023-02-13T07:09:53;103635.41;;;9.67;70.01
66945;BME280;53853;51.982;5.928;2023-02-13T07:12:25;103630.91;;;9.67;70.07
66945;BME280;53853;51.982;5.928;2023-02-13T07:14:55;103625.59;;;9.67;69.96
66945;BME280;53853;51.982;5.928;2023-02-13T07:17:25;103631.66;;;9.71;69.79
66945;BME280;53853;51.982;5.928;2023-02-13T07:19:55;103630.78;;;9.70;70.02
66945;BME280;53853;51.982;5.928;2023-02-13T07:22:25;103637.63;;;9.76;69.86
66945;BME280;53853;51.982;5.928;2023-02-13T07:24:55;103628.69;;;9.77;69.75
66945;BME280;53853;51.982;5.928;2023-02-13T07:27:28;103629.63;;;9.76;69.94
66945;BME280;53853;51.982;5.928;2023-02-13T07:29:58;103637.53;;;9.77;69.81
66945;BME280;53853;51.982;5.928;2023-02-13T07:32:28;103634.81;;;9.79;69.65
66945;BME280;53853;51.982;5.928;2023-02-13T07:34:58;103635.66;;;9.79;69.83
66945;BME280;53853;51.982;5.928;2023-02-13T07:37:28;103642.00;;;9.77;69.76
66945;BME280;53853;51.982;5.928;2023-02-13T07:39:58;103638.47;;;9.76;69.64
66945;BME280;53853;51.982;5.928;2023-02-13T07:42:34;103640.19;;;9.77;69.73
66945;BME280;53853;51.982;5.928;2023-02-13T07:45:05;103650.00;;;9.77;69.84
66945;BME280;53853;51.982;5.928;2023-02-13T07:47:35;103646.16;;;9.83;69.69
66945;BME280;53853;51.982;5.928;2023-02-13T07:50:06;103650.47;;;9.85;69.68
66945;BME280;53853;51.982;5.928;2023-02-13T07:52:41;103648.53;;;9.89;69.68
66945;BME280;53853;51.982;5.928;2023-02-13T07:55:11;103649.38;;;9.89;69.65
66945;BME280;53853;51.982;5.928;2023-02-13T07:57:43;103655.44;;;9.93;69.62
66945;BME280;53853;51.982;5.928;2023-02-13T08:00:14;103655.50;;;9.91;69.36
66945;BME280;53853;51.982;5.928;2023-02-13T08:02:44;103655.34;;;9.94;69.34
66945;BME280;53853;51.982;5.928;2023-02-13T08:05:14;103656.06;;;9.98;69.42
66945;BME280;53853;51.982;5.928;2023-02-13T08:07:44;103660.19;;;10.04;69.51
66945;BME280;53853;51.982;5.928;2023-02-13T08:10:15;103660.78;;;10.10;69.39
66945;BME280;53853;51.982;5.928;2023-02-13T08:13:00;103656.16;;;10.14;69.13
66945;BME280;53853;51.982;5.928;2023-02-13T08:15:30;103655.31;;;10.13;69.14
66945;BME280;53853;51.982;5.928;2023-02-13T08:17:59;103649.78;;;10.16;69.09
66945;BME280;53853;51.982;5.928;2023-02-13T08:20:30;103650.75;;;10.15;68.98
66945;BME280;53853;51.982;5.928;2023-02-13T08:23:02;103651.53;;;10.18;69.19
66945;BME280;53853;51.982;5.928;2023-02-13T08:25:32;103653.34;;;10.17;68.90
66945;BME280;53853;51.982;5.928;2023-02-13T08:28:05;103648.69;;;10.21;68.94
66945;BME280;53853;51.982;5.928;2023-02-13T08:30:35;103646.72;;;10.24;68.88
66945;BME280;53853;51.982;5.928;2023-02-13T08:33:05;103647.38;;;10.29;68.92
66945;BME280;53853;51.982;5.928;2023-02-13T08:35:35;103647.31;;;10.31;68.71
66945;BME280;53853;51.982;5.928;2023-02-13T08:38:05;103655.38;;;10.29;68.36
66945;BME280;53853;51.982;5.928;2023-02-13T08:40:35;103666.19;;;10.26;68.51
66945;BME280;53853;51.982;5.928;2023-02-13T08:43:07;103664.53;;;10.24;68.53
66945;BME280;53853;51.982;5.928;2023-02-13T08:45:37;103669.56;;;10.30;68.59
66945;BME280;53853;51.982;5.928;2023-02-13T08:48:07;103661.28;;;10.36;68.56
66945;BME280;53853;51.982;5.928;2023-02-13T08:50:37;103663.00;;;10.37;68.53
66945;BME280;53853;51.982;5.928;2023-02-13T08:53:07;103663.63;;;10.42;68.47
66945;BME280;53853;51.982;5.928;2023-02-13T08:55:37;103663.41;;;10.47;68.51
66945;BME280;53853;51.982;5.928;2023-02-13T08:58:09;103668.66;;;10.48;68.28
66945;BME280;53853;51.982;5.928;2023-02-13T09:00:39;103662.19;;;10.52;68.25
66945;BME280;53853;51.982;5.928;2023-02-13T09:03:09;103665.63;;;10.55;68.30
66945;BME280;53853;51.982;5.928;2023-02-13T09:05:39;103663.63;;;10.60;68.28
66945;BME280;53853;51.982;5.928;2023-02-13T09:08:09;103665.88;;;10.67;68.43
66945;BME280;53853;51.982;5.928;2023-02-13T09:10:40;103668.63;;;10.66;67.98
66945;BME280;53853;51.982;5.928;2023-02-13T09:13:13;103662.00;;;10.73;68.14
66945;BME280;53853;51.982;5.928;2023-02-13T09:15:43;103667.81;;;10.81;67.99
66945;BME280;53853;51.982;5.928;2023-02-13T09:18:13;103663.34;;;10.82;67.77
66945;BME280;53853;51.982;5.928;2023-02-13T09:20:43;103665.78;;;10.86;67.70
66945;BME280;53853;51.982;5.928;2023-02-13T09:23:13;103669.22;;;10.88;67.57
66945;BME280;53853;51.982;5.928;2023-02-13T09:25:43;103658.03;;;10.98;67.22
66945;BME280;53853;51.982;5.928;2023-02-13T09:28:15;103669.56;;;10.98;66.94
66945;BME280;53853;51.982;5.928;2023-02-13T09:30:46;103664.00;;;11.03;67.20
66945;BME280;53853;51.982;5.928;2023-02-13T09:33:15;103672.34;;;11.13;67.14
66945;BME280;53853;51.982;5.928;2023-02-13T09:35:47;103665.13;;;11.15;66.63
66945;BME280;53853;51.982;5.928;2023-02-13T09:38:17;103664.59;;;11.08;66.46
66945;BME280;53853;51.982;5.928;2023-02-13T09:40:49;103670.63;;;11.12;66.59
66945;BME280;53853;51.982;5.928;2023-02-13T09:43:28;103660.91;;;11.11;66.63
66945;BME280;53853;51.982;5.928;2023-02-13T09:46:01;103662.53;;;11.13;66.48
66945;BME280;53853;51.982;5.928;2023-02-13T09:48:36;103666.00;;;11.15;66.48
66945;BME280;53853;51.982;5.928;2023-02-13T09:51:13;103668.41;;;11.20;66.53
66945;BME280;53853;51.982;5.928;2023-02-13T09:53:50;103667.72;;;11.32;66.65
66945;BME280;53853;51.982;5.928;2023-02-13T09:56:28;103665.16;;;11.47;66.43
66945;BME280;53853;51.982;5.928;2023-02-13T09:59:18;103661.28;;;11.52;65.74
66945;BME280;53853;51.982;5.928;2023-02-13T10:01:56;103662.41;;;11.64;65.59
66945;BME280;53853;51.982;5.928;2023-02-13T10:04:35;103659.19;;;11.73;65.42
66945;BME280;53853;51.982;5.928;2023-02-13T10:07:19;103655.47;;;11.92;64.31
66945;BME280;53853;51.982;5.928;2023-02-13T10:10:01;103652.38;;;12.00;63.20
66945;BME280;53853;51.982;5.928;2023-02-13T10:12:49;103660.03;;;12.06;63.33
66945;BME280;53853;51.982;5.928;2023-02-13T10:15:30;103660.97;;;12.05;63.55
66945;BME280;53853;51.982;5.928;2023-02-13T10:18:09;103659.25;;;12.04;63.46
66945;BME280;53853;51.982;5.928;2023-02-13T10:20:44;103653.41;;;11.97;63.18
66945;BME280;53853;51.982;5.928;2023-02-13T10:23:21;103652.38;;;12.00;63.11
66945;BME280;53853;51.982;5.928;2023-02-13T10:25:56;103658.91;;;11.94;63.27
66945;BME280;53853;51.982;5.928;2023-02-13T10:28:36;103648.94;;;11.98;63.75
66945;BME280;53853;51.982;5.928;2023-02-13T10:31:12;103653.88;;;12.04;63.83
66945;BME280;53853;51.982;5.928;2023-02-13T10:33:48;103652.88;;;12.06;63.80
66945;BME280;53853;51.982;5.928;2023-02-13T10:36:21;103660.63;;;12.11;63.66
66945;BME280;53853;51.982;5.928;2023-02-13T10:38:55;103663.88;;;12.16;63.36
66945;BME280;53853;51.982;5.928;2023-02-13T10:41:39;103661.00;;;12.19;63.52
66945;BME280;53853;51.982;5.928;2023-02-13T10:44:30;103661.81;;;12.21;63.65
66945;BME280;53853;51.982;5.928;2023-02-13T10:47:15;103654.09;;;12.31;62.78
66945;BME280;53853;51.982;5.928;2023-02-13T10:50:02;103658.00;;;12.40;62.81
66945;BME280;53853;51.982;5.928;2023-02-13T10:52:43;103652.38;;;12.44;62.36
66945;BME280;53853;51.982;5.928;2023-02-13T10:55:30;103646.84;;;12.47;62.31
66945;BME280;53853;51.982;5.928;2023-02-13T10:58:07;103643.91;;;12.52;62.64
66945;BME280;53853;51.982;5.928;2023-02-13T11:00:46;103649.91;;;12.56;62.43
66945;BME280;53853;51.982;5.928;2023-02-13T11:03:22;103642.47;;;12.61;62.43
66945;BME280;53853;51.982;5.928;2023-02-13T11:05:53;103639.78;;;12.61;62.01
66945;BME280;53853;51.982;5.928;2023-02-13T11:08:25;103632.91;;;12.57;62.14
66945;BME280;53853;51.982;5.928;2023-02-13T11:10:57;103634.94;;;12.53;61.81
66945;BME280;53853;51.982;5.928;2023-02-13T11:13:29;103636.34;;;12.59;61.83
66945;BME280;53853;51.982;5.928;2023-02-13T11:16:01;103628.03;;;12.63;61.97
66945;BME280;53853;51.982;5.928;2023-02-13T11:18:36;103626.91;;;12.67;62.05
66945;BME280;53853;51.982;5.928;2023-02-13T11:21:09;103622.78;;;12.62;60.42
66945;BME280;53853;51.982;5.928;2023-02-13T11:23:43;103619.91;;;12.50;61.12
66945;BME280;53853;51.982;5.928;2023-02-13T11:26:20;103614.09;;;12.44;61.65
66945;BME280;53853;51.982;5.928;2023-02-13T11:28:54;103616.47;;;12.34;61.22
66945;BME280;53853;51.982;5.928;2023-02-13T11:31:27;103601.56;;;12.30;61.86
66945;BME280;53853;51.982;5.928;2023-02-13T11:34:21;103600.59;;;12.31;61.93
66945;BME280;53853;51.982;5.928;2023-02-13T11:36:53;103598.88;;;12.30;62.27
66945;BME280;53853;51.982;5.928;2023-02-13T11:39:26;103594.75;;;12.24;62.20
66945;BME280;53853;51.982;5.928;2023-02-13T11:41:56;103601.66;;;12.28;61.87
66945;BME280;53853;51.982;5.928;2023-02-13T11:44:27;103601.66;;;12.28;62.04
66945;BME280;53853;51.982;5.928;2023-02-13T11:46:59;103594.28;;;12.32;62.19
66945;BME280;53853;51.982;5.928;2023-02-13T11:49:34;103598.88;;;12.30;62.23
66945;BME280;53853;51.982;5.928;2023-02-13T11:52:06;103592.16;;;12.23;62.31
66945;BME280;53853;51.982;5.928;2023-02-13T11:54:44;103585.03;;;12.23;62.30
66945;BME280;53853;51.982;5.928;2023-02-13T11:57:20;103595.72;;;12.23;62.41
66945;BME280;53853;51.982;5.928;2023-02-13T11:59:51;103591.31;;;12.22;62.53
66945;BME280;53853;51.982;5.928;2023-02-13T12:02:23;103588.47;;;12.25;62.90
66945;BME280;53853;51.982;5.928;2023-02-13T12:05:14;103582.56;;;12.35;62.15
66945;BME280;53853;51.982;5.928;2023-02-13T12:07:45;103579.69;;;12.38;61.46
66945;BME280;53853;51.982;5.928;2023-02-13T12:10:21;103576.66;;;12.44;60.86
66945;BME280;53853;51.982;5.928;2023-02-13T12:12:54;103577.41;;;12.46;61.46
66945;BME280;53853;51.982;5.928;2023-02-13T12:15:26;103574.63;;;12.47;61.38
66945;BME280;53853;51.982;5.928;2023-02-13T12:18:04;103566.50;;;12.49;61.69
66945;BME280;53853;51.982;5.928;2023-02-13T12:20:48;103570.03;;;12.49;61.77
66945;BME280;53853;51.982;5.928;2023-02-13T12:23:29;103571.88;;;12.49;61.85
66945;BME280;53853;51.982;5.928;2023-02-13T12:26:16;103575.19;;;12.53;61.90
66945;BME280;53853;51.982;5.928;2023-02-13T12:29:14;103576.66;;;12.58;61.31
66945;BME280;53853;51.982;5.928;2023-02-13T12:31:54;103573.78;;;12.61;61.46
66945;BME280;53853;51.982;5.928;2023-02-13T12:34:53;103573.13;;;12.58;61.68
66945;BME280;53853;51.982;5.928;2023-02-13T12:40:46;103565.00;;;12.59;61.88
66945;BME280;53853;51.982;5.928;2023-02-13T12:46:31;103559.84;;;12.71;61.00
66945;BME280;53853;51.982;5.928;2023-02-13T12:49:16;103546.66;;;12.67;61.33
66945;BME280;53853;51.982;5.928;2023-02-13T12:51:53;103549.13;;;12.71;61.89
66945;BME280;53853;51.982;5.928;2023-02-13T12:54:39;103542.16;;;12.68;61.34
66945;BME280;53853;51.982;5.928;2023-02-13T12:57:23;103544.34;;;12.61;61.79
66945;BME280;53853;51.982;5.928;2023-02-13T13:00:18;103535.66;;;12.58;61.60
66945;BME280;53853;51.982;5.928;2023-02-13T13:03:08;103536.44;;;12.60;61.65
66945;BME280;53853;51.982;5.928;2023-02-13T13:05:57;103526.09;;;12.54;61.86
66945;BME280;53853;51.982;5.928;2023-02-13T13:08:41;103530.59;;;12.53;61.99
66945;BME280;53853;51.982;5.928;2023-02-13T13:11:32;103531.56;;;12.52;62.17
66945;BME280;53853;51.982;5.928;2023-02-13T13:14:13;103525.25;;;12.53;62.51
66945;BME280;53853;51.982;5.928;2023-02-13T13:16:48;103521.50;;;12.56;62.21
66945;BME280;53853;51.982;5.928;2023-02-13T13:19:28;103516.06;;;12.57;62.32
66945;BME280;53853;51.982;5.928;2023-02-13T13:22:06;103522.19;;;12.59;62.44
66945;BME280;53853;51.982;5.928;2023-02-13T13:24:52;103522.06;;;12.61;62.46
66945;BME280;53853;51.982;5.928;2023-02-13T13:27:29;103518.34;;;12.63;62.31
66945;BME280;53853;51.982;5.928;2023-02-13T13:30:04;103511.06;;;12.65;62.55
66945;BME280;53853;51.982;5.928;2023-02-13T13:32:34;103514.53;;;12.67;62.21
66945;BME280;53853;51.982;5.928;2023-02-13T13:35:10;103508.41;;;12.65;62.43
66945;BME280;53853;51.982;5.928;2023-02-13T13:37:45;103505.53;;;12.68;62.08
66945;BME280;53853;51.982;5.928;2023-02-13T13:40:37;103511.78;;;12.69;62.18
66945;BME280;53853;51.982;5.928;2023-02-13T13:43:19;103497.81;;;12.64;62.04
66945;BME280;53853;51.982;5.928;2023-02-13T13:46:02;103500.09;;;12.56;62.18
66945;BME280;53853;51.982;5.928;2023-02-13T13:48:54;103499.75;;;12.47;62.55
66945;BME280;53853;51.982;5.928;2023-02-13T13:51:26;103496.50;;;12.42;62.77
66945;BME280;53853;51.982;5.928;2023-02-13T13:54:18;103503.25;;;12.48;63.00
66945;BME280;53853;51.982;5.928;2023-02-13T13:57:05;103495.06;;;12.51;62.73